Time;durP1;ratioP1;P1;durP2;ratioP2;P2;SDS_P1;SDS_P2;PMS_P1;PMS_P2;Temp;Humidity;BMP_temperature;BMP_pressure;BME280_temperature;BME280_humidity;BME280_pressure;Samples;Min_cycle;Max_cycle;Signal;HPM_P1;HPM_P2
2022/03/25 00:02:12;;;;;;;19.00;14.73;;;1.20;99.90;;;;;;5053724;28;20375;-83
2022/03/25 00:04:37;;;;;;;17.92;14.07;;;1.20;99.90;;;;;;5052035;28;20387;-84
2022/03/25 00:07:03;;;;;;;18.45;14.88;;;1.20;99.90;;;;;;5052110;28;20410;-84
2022/03/25 00:09:29;;;;;;;20.88;14.77;;;1.20;99.90;;;;;;5052081;28;20738;-84
2022/03/25 00:11:54;;;;;;;19.07;14.53;;;1.10;99.90;;;;;;5052852;28;20387;-84
2022/03/25 00:14:20;;;;;;;17.60;14.63;;;1.10;99.90;;;;;;5051425;28;20431;-84
2022/03/25 00:16:46;;;;;;;20.10;14.73;;;1.10;99.90;;;;;;5051887;28;20372;-83
2022/03/25 00:19:12;;;;;;;19.40;15.30;;;1.00;99.90;;;;;;5049987;28;20391;-83
2022/03/25 00:21:38;;;;;;;17.45;14.85;;;1.00;99.90;;;;;;5049420;28;20488;-84
2022/03/25 00:24:05;;;;;;;18.13;14.77;;;1.00;99.90;;;;;;5049994;28;20909;-83
2022/03/25 00:26:31;;;;;;;19.38;15.25;;;1.00;99.90;;;;;;5050412;28;20479;-83
2022/03/25 00:28:57;;;;;;;19.85;15.60;;;0.90;99.90;;;;;;5052209;28;20458;-83
2022/03/25 00:31:23;;;;;;;18.38;15.02;;;0.90;99.90;;;;;;5051928;28;20415;-84
2022/03/25 00:33:51;;;;;;;21.27;15.32;;;0.90;99.90;;;;;;5050493;28;20897;-84
2022/03/25 00:36:23;;;;;;;19.50;15.38;;;0.90;99.90;;;;;;5050818;28;20522;-84
2022/03/25 00:38:49;;;;;;;18.33;14.50;;;0.80;99.90;;;;;;5050779;28;20387;-84
2022/03/25 00:41:16;;;;;;;18.42;14.27;;;0.80;99.90;;;;;;5054141;28;20380;-84
2022/03/25 00:43:43;;;;;;;17.45;13.70;;;0.80;99.90;;;;;;5050633;28;20383;-83
2022/03/25 00:46:11;;;;;;;17.38;14.57;;;0.80;99.90;;;;;;5049157;28;20469;-84
2022/03/25 00:48:37;;;;;;;16.90;14.40;;;0.80;99.90;;;;;;5049376;28;20376;-83
2022/03/25 00:51:03;;;;;;;17.83;14.57;;;0.80;99.90;;;;;;5053439;28;20384;-83
2022/03/25 00:53:28;;;;;;;19.08;15.32;;;0.80;99.90;;;;;;5053031;28;20407;-84
2022/03/25 00:55:54;;;;;;;20.05;14.88;;;0.80;99.90;;;;;;5053031;28;20734;-84
2022/03/25 00:58:21;;;;;;;17.00;13.90;;;0.70;99.90;;;;;;5054908;28;20375;-84
2022/03/25 01:00:47;;;;;;;19.90;14.77;;;0.70;99.90;;;;;;5053729;28;20384;-83
2022/03/25 01:03:13;;;;;;;18.75;14.07;;;0.70;99.90;;;;;;5055400;28;20475;-83
2022/03/25 01:05:39;;;;;;;17.03;14.37;;;0.70;99.90;;;;;;5053379;28;20395;-83
2022/03/25 01:08:06;;;;;;;19.83;14.43;;;0.60;99.90;;;;;;5054630;28;20376;-83
2022/03/25 01:10:32;;;;;;;18.20;14.23;;;0.60;99.90;;;;;;5053498;28;20379;-83
2022/03/25 01:12:58;;;;;;;17.45;14.30;;;0.60;99.90;;;;;;5055088;28;20400;-83
2022/03/25 01:15:23;;;;;;;19.08;14.82;;;0.60;99.90;;;;;;5053098;28;20376;-83
2022/03/25 01:17:49;;;;;;;18.83;14.68;;;0.70;99.90;;;;;;5050777;28;20367;-84
2022/03/25 01:20:17;;;;;;;16.80;13.95;;;0.80;99.90;;;;;;5032668;28;20425;-83
2022/03/25 01:22:44;;;;;;;18.80;14.50;;;0.80;99.90;;;;;;5034114;28;20408;-83
2022/03/25 01:25:10;;;;;;;16.25;14.30;;;0.70;99.90;;;;;;5048537;28;20474;-83
2022/03/25 01:27:35;;;;;;;17.73;14.82;;;0.60;99.90;;;;;;5054331;28;20467;-83
2022/03/25 01:30:02;;;;;;;20.60;15.80;;;0.50;99.90;;;;;;5052127;28;20967;-83
2022/03/25 01:32:27;;;;;;;19.25;14.70;;;0.50;99.90;;;;;;5041166;28;20432;-84
2022/03/25 01:34:53;;;;;;;16.80;13.57;;;0.50;99.90;;;;;;5033083;28;20385;-83
2022/03/25 01:37:19;;;;;;;15.93;13.70;;;0.40;99.90;;;;;;5031949;28;20751;-84
2022/03/25 01:39:45;;;;;;;17.50;14.43;;;0.50;99.90;;;;;;5032578;28;20412;-83
2022/03/25 01:42:11;;;;;;;19.45;15.27;;;0.60;99.90;;;;;;5033582;28;20380;-83
2022/03/25 01:44:37;;;;;;;19.73;14.55;;;0.60;99.90;;;;;;5045016;28;20984;-83
2022/03/25 01:47:03;;;;;;;18.45;14.82;;;0.50;99.90;;;;;;5053514;28;20384;-83
2022/03/25 01:49:29;;;;;;;18.13;15.27;;;0.60;99.90;;;;;;5053354;28;20391;-83
2022/03/25 01:52:00;;;;;;;20.13;15.27;;;0.50;99.90;;;;;;5052221;28;20392;-83
2022/03/25 01:54:29;;;;;;;18.42;14.93;;;0.50;99.90;;;;;;5053567;28;20434;-83
2022/03/25 01:57:01;;;;;;;18.17;15.60;;;0.40;99.90;;;;;;5052653;28;20403;-83
2022/03/25 01:59:28;;;;;;;19.63;15.95;;;0.40;99.90;;;;;;5054462;28;20375;-83
2022/03/25 02:01:57;;;;;;;18.67;15.38;;;0.40;99.90;;;;;;5042581;28;20404;-84
2022/03/25 02:04:24;;;;;;;18.23;15.25;;;0.30;99.90;;;;;;5045835;28;20475;-83
2022/03/25 02:06:51;;;;;;;21.45;15.10;;;0.30;99.90;;;;;;5051641;28;20404;-83
2022/03/25 02:09:16;;;;;;;17.73;14.95;;;0.30;99.90;;;;;;5053531;28;20438;-83
2022/03/25 02:11:42;;;;;;;19.58;15.48;;;0.30;99.90;;;;;;5053287;28;20384;-83
2022/03/25 02:14:09;;;;;;;19.63;15.18;;;0.30;99.90;;;;;;5053632;28;20406;-83
2022/03/25 02:16:38;;;;;;;20.77;16.33;;;0.30;99.90;;;;;;5052274;28;20391;-83
2022/03/25 02:19:05;;;;;;;19.77;15.88;;;0.30;99.90;;;;;;5053556;28;20396;-83
2022/03/25 02:21:32;;;;;;;18.92;15.82;;;0.30;99.90;;;;;;5052757;28;20758;-83
2022/03/25 02:23:59;;;;;;;21.35;16.10;;;0.30;99.90;;;;;;5053664;28;20406;-84
2022/03/25 02:26:26;;;;;;;20.73;16.75;;;0.30;99.90;;;;;;5052329;28;20391;-83
2022/03/25 02:28:52;;;;;;;21.08;17.50;;;0.20;99.90;;;;;;5052237;28;20390;-83
2022/03/25 02:31:17;;;;;;;18.73;15.52;;;0.10;99.90;;;;;;5050750;28;20391;-83
2022/03/25 02:33:43;;;;;;;19.95;16.25;;;0.10;99.90;;;;;;5051348;28;20411;-83
2022/03/25 02:36:09;;;;;;;18.80;16.15;;;0.10;99.90;;;;;;5050422;28;20479;-83
2022/03/25 02:38:35;;;;;;;20.55;16.60;;;0.10;99.90;;;;;;5049074;28;20404;-83
2022/03/25 02:41:01;;;;;;;21.38;15.90;;;0.10;99.90;;;;;;5050274;28;20391;-84
2022/03/25 02:43:27;;;;;;;22.73;17.05;;;0.10;99.90;;;;;;5051000;28;20399;-83
2022/03/25 02:45:53;;;;;;;21.05;16.13;;;0.10;99.90;;;;;;5049913;28;20376;-83
2022/03/25 02:48:18;;;;;;;19.63;16.38;;;0.10;99.90;;;;;;5050797;28;20762;-83
2022/03/25 02:50:46;;;;;;;20.70;16.25;;;0.20;99.90;;;;;;5050127;28;20905;-83
2022/03/25 02:53:13;;;;;;;21.48;16.88;;;0.20;99.90;;;;;;5050189;28;20418;-83
2022/03/25 02:55:42;;;;;;;21.67;16.77;;;0.20;99.90;;;;;;5049905;28;20957;-83
2022/03/25 02:58:08;;;;;;;20.48;17.00;;;0.20;99.90;;;;;;5050846;28;20540;-84
2022/03/25 03:00:34;;;;;;;21.33;17.67;;;0.20;99.90;;;;;;5049463;28;20390;-83
2022/03/25 03:03:00;;;;;;;22.75;17.52;;;0.20;99.90;;;;;;5050370;28;20391;-83
2022/03/25 03:05:30;;;;;;;21.40;17.15;;;0.20;99.90;;;;;;5050308;28;20450;-83
2022/03/25 03:07:57;;;;;;;21.57;17.80;;;0.20;99.90;;;;;;5052682;28;20446;-84
2022/03/25 03:10:24;;;;;;;21.90;18.13;;;0.10;99.90;;;;;;5052737;28;20737;-83
2022/03/25 03:12:50;;;;;;;21.97;17.70;;;0.10;99.90;;;;;;5050498;28;20411;-83
2022/03/25 03:15:17;;;;;;;25.45;18.70;;;0.10;99.90;;;;;;5052874;28;20443;-83
2022/03/25 03:17:44;;;;;;;24.42;19.00;;;0.10;99.90;;;;;;5052574;28;20387;-83
2022/03/25 03:20:10;;;;;;;21.13;18.17;;;0.10;99.90;;;;;;5053779;28;20419;-83
2022/03/25 03:22:36;;;;;;;23.15;18.30;;;0.10;99.90;;;;;;5051985;28;20408;-83
2022/03/25 03:25:03;;;;;;;26.88;19.92;;;0.10;99.90;;;;;;5050342;28;20411;-83
2022/03/25 03:27:29;;;;;;;22.35;18.88;;;0.20;99.90;;;;;;5052267;28;20368;-83
2022/03/25 03:29:55;;;;;;;21.07;18.43;;;0.30;99.90;;;;;;5050832;28;20916;-84
2022/03/25 03:32:21;;;;;;;25.37;19.07;;;0.20;99.90;;;;;;5050881;28;20399;-84
2022/03/25 03:34:46;;;;;;;21.87;17.80;;;0.00;99.90;;;;;;5051330;28;20426;-84
2022/03/25 03:37:12;;;;;;;25.50;18.17;;;0.00;99.90;;;;;;5051334;28;20384;-84
2022/03/25 03:39:38;;;;;;;24.00;18.77;;;0.00;99.90;;;;;;5042877;28;20386;-83
2022/03/25 03:42:03;;;;;;;25.13;20.23;;;0.00;99.90;;;;;;5030980;28;20412;-84
2022/03/25 03:44:29;;;;;;;22.80;18.97;;;-0.10;99.90;;;;;;5031738;28;20797;-84
2022/03/25 03:46:56;;;;;;;26.30;19.47;;;-0.10;99.90;;;;;;5030189;28;20393;-83
2022/03/25 03:49:22;;;;;;;25.40;20.00;;;0.10;99.90;;;;;;5029639;28;20817;-84
2022/03/25 03:51:48;;;;;;;24.23;18.97;;;0.00;99.90;;;;;;5038094;28;20463;-83
2022/03/25 03:54:14;;;;;;;24.77;19.58;;;-0.10;99.90;;;;;;5049615;28;20483;-83
2022/03/25 03:56:39;;;;;;;23.25;18.25;;;-0.20;99.90;;;;;;5050851;28;20550;-84
2022/03/25 03:59:05;;;;;;;23.50;18.70;;;-0.20;99.90;;;;;;5049018;28;20425;-83
2022/03/25 04:01:30;;;;;;;24.30;18.07;;;-0.20;99.90;;;;;;5049461;28;20380;-84
2022/03/25 04:03:56;;;;;;;23.07;19.13;;;-0.20;99.90;;;;;;5049727;28;20376;-83
2022/03/25 04:06:22;;;;;;;24.63;19.00;;;-0.20;99.90;;;;;;5050821;28;20414;-84
2022/03/25 04:08:49;;;;;;;25.73;19.73;;;-0.10;99.90;;;;;;5049734;28;20758;-84
2022/03/25 04:11:18;;;;;;;25.85;19.90;;;-0.20;99.90;;;;;;5050745;28;20379;-84
2022/03/25 04:13:45;;;;;;;26.08;20.75;;;-0.20;99.90;;;;;;5050233;28;20411;-83
2022/03/25 04:16:11;;;;;;;27.40;21.52;;;0.00;99.90;;;;;;5049758;28;20376;-84
2022/03/25 04:18:37;;;;;;;27.45;21.27;;;0.00;99.90;;;;;;5050492;28;20387;-84
2022/03/25 04:21:03;;;;;;;24.17;20.38;;;-0.20;99.90;;;;;;5051970;28;20398;-83
2022/03/25 04:23:29;;;;;;;26.05;20.98;;;-0.10;99.90;;;;;;5053330;28;20873;-84
2022/03/25 04:25:55;;;;;;;29.42;21.73;;;-0.20;99.90;;;;;;5055147;28;20382;-84
2022/03/25 04:28:21;;;;;;;26.60;20.48;;;0.00;99.90;;;;;;5048324;28;20915;-84
2022/03/25 04:30:47;;;;;;;28.30;21.67;;;-0.10;99.90;;;;;;5034691;28;20389;-84
2022/03/25 04:33:13;;;;;;;26.63;21.85;;;-0.10;99.90;;;;;;5037452;28;20980;-85
2022/03/25 04:35:39;;;;;;;26.70;21.35;;;-0.20;99.90;;;;;;5052631;28;20395;-84
2022/03/25 04:38:05;;;;;;;27.98;21.85;;;-0.20;99.90;;;;;;5051582;28;20391;-84
2022/03/25 04:40:32;;;;;;;24.85;20.80;;;-0.20;99.90;;;;;;5055065;28;20402;-84
2022/03/25 04:42:59;;;;;;;32.90;21.55;;;-0.30;99.90;;;;;;5052189;28;20449;-84
2022/03/25 04:45:27;;;;;;;91.38;26.88;;;-0.30;99.90;;;;;;5052878;28;20384;-84
2022/03/25 04:47:53;;;;;;;105.78;28.10;;;-0.30;99.90;;;;;;5054404;28;20394;-84
2022/03/25 04:50:19;;;;;;;61.47;24.37;;;-0.30;99.90;;;;;;5054416;28;20416;-84
2022/03/25 04:52:45;;;;;;;58.22;23.30;;;-0.30;99.90;;;;;;5054596;28;20400;-84
2022/03/25 04:55:11;;;;;;;43.10;22.43;;;-0.30;99.90;;;;;;5054416;28;20364;-85
2022/03/25 04:57:41;;;;;;;44.33;22.55;;;-0.30;99.90;;;;;;5054433;28;20432;-84
2022/03/25 05:00:08;;;;;;;35.77;21.67;;;-0.30;99.90;;;;;;5047702;28;20448;-84
2022/03/25 05:02:35;;;;;;;39.63;22.27;;;-0.30;99.90;;;;;;5033060;28;20396;-84
2022/03/25 05:05:02;;;;;;;42.60;22.73;;;-0.30;99.90;;;;;;5034232;28;20389;-85
2022/03/25 05:07:28;;;;;;;49.45;22.83;;;-0.30;99.90;;;;;;5032705;28;20484;-85
2022/03/25 05:09:58;;;;;;;43.85;23.48;;;-0.30;99.90;;;;;;5032294;28;20397;-84
2022/03/25 05:12:24;;;;;;;45.13;22.27;;;-0.20;99.90;;;;;;5033515;28;20915;-85
2022/03/25 05:14:50;;;;;;;47.85;23.13;;;-0.20;99.90;;;;;;5032867;28;20453;-85
2022/03/25 05:17:15;;;;;;;40.73;22.33;;;-0.20;99.90;;;;;;5035003;28;20377;-83
2022/03/25 05:19:42;;;;;;;42.57;23.80;;;-0.20;99.90;;;;;;5039329;28;20552;-84
2022/03/25 05:22:08;;;;;;;39.25;21.80;;;0.00;99.90;;;;;;5033482;28;20381;-84
2022/03/25 05:24:34;;;;;;;41.60;22.95;;;0.00;99.90;;;;;;5039181;28;21051;-83
2022/03/25 05:27:00;;;;;;;38.60;22.47;;;0.10;99.90;;;;;;5040575;28;20434;-84
2022/03/25 05:29:29;;;;;;;40.67;22.27;;;0.10;99.90;;;;;;5037381;28;20805;-82
2022/03/25 05:31:55;;;;;;;41.58;23.13;;;0.10;99.90;;;;;;5035765;28;20397;-83
2022/03/25 05:34:21;;;;;;;36.20;22.05;;;0.10;99.90;;;;;;5033788;28;20472;-84
2022/03/25 05:36:46;;;;;;;34.75;22.85;;;0.30;99.90;;;;;;5042121;28;20487;-84
2022/03/25 05:39:14;;;;;;;37.15;23.08;;;0.20;99.90;;;;;;5054654;28;20437;-84
2022/03/25 05:41:41;;;;;;;35.73;23.53;;;0.40;99.90;;;;;;5053289;28;20500;-84
2022/03/25 05:44:08;;;;;;;29.90;22.17;;;0.50;99.90;;;;;;5052282;28;20451;-83
2022/03/25 05:46:34;;;;;;;28.08;21.25;;;0.70;99.90;;;;;;5053676;28;20415;-83
2022/03/25 05:49:00;;;;;;;31.85;22.58;;;0.60;99.90;;;;;;5052907;28;20380;-83
2022/03/25 05:51:26;;;;;;;29.23;22.45;;;0.50;99.90;;;;;;5052377;28;20388;-82
2022/03/25 05:53:52;;;;;;;27.93;21.83;;;0.70;99.90;;;;;;5053696;28;20547;-83
2022/03/25 05:56:17;;;;;;;28.90;21.67;;;0.90;99.90;;;;;;5051439;28;20383;-84
2022/03/25 05:58:43;;;;;;;23.52;18.95;;;1.00;99.90;;;;;;5051781;28;20391;-84
2022/03/25 06:01:08;;;;;;;24.73;19.55;;;1.00;99.90;;;;;;5054233;28;20367;-84
2022/03/25 06:03:34;;;;;;;23.50;19.25;;;1.00;99.90;;;;;;5055274;28;20391;-84
2022/03/25 06:06:02;;;;;;;24.77;19.00;;;1.20;99.90;;;;;;5055168;28;20378;-84
2022/03/25 06:08:28;;;;;;;26.58;19.52;;;1.40;99.90;;;;;;5053479;28;20394;-84
2022/03/25 06:10:55;;;;;;;24.10;19.25;;;1.60;99.90;;;;;;5045287;28;20475;-84
2022/03/25 06:13:21;;;;;;;28.38;21.58;;;1.70;99.90;;;;;;5042070;28;20487;-84
2022/03/25 06:15:47;;;;;;;39.40;22.15;;;1.90;99.90;;;;;;5039340;28;20410;-84
2022/03/25 06:18:13;;;;;;;32.38;22.17;;;2.00;99.90;;;;;;5040339;28;20377;-84
2022/03/25 06:20:41;;;;;;;37.38;22.63;;;2.20;99.90;;;;;;5038917;28;20401;-84
2022/03/25 06:23:06;;;;;;;38.60;22.20;;;2.40;99.90;;;;;;5040842;28;20442;-83
2022/03/25 06:25:32;;;;;;;42.33;22.63;;;2.80;99.90;;;;;;5043895;28;20378;-83
2022/03/25 06:28:07;;;;;;;55.80;23.93;;;2.90;99.90;;;;;;5045371;28;20371;-82
2022/03/25 06:30:39;;;;;;;200.80;36.10;;;3.10;99.90;;;;;;5046672;28;20394;-84
2022/03/25 06:33:07;;;;;;;67.32;25.80;;;3.10;99.90;;;;;;5045172;28;20513;-84
2022/03/25 06:35:36;;;;;;;68.10;23.77;;;3.50;99.90;;;;;;5044733;28;20412;-83
2022/03/25 06:38:04;;;;;;;57.20;24.65;;;3.60;99.90;;;;;;5042513;28;20969;-85
2022/03/25 06:40:32;;;;;;;59.92;24.25;;;3.80;99.90;;;;;;5042941;28;20378;-83
2022/03/25 06:42:58;;;;;;;50.03;24.35;;;4.00;99.90;;;;;;5045550;28;20389;-84
2022/03/25 06:45:25;;;;;;;59.15;25.00;;;4.20;99.90;;;;;;5046694;28;20379;-85
2022/03/25 06:47:51;;;;;;;48.35;23.85;;;4.30;99.90;;;;;;5041800;28;20376;-84
2022/03/25 06:50:19;;;;;;;58.20;25.20;;;4.60;99.90;;;;;;5041780;28;20404;-84
2022/03/25 06:52:46;;;;;;;53.05;26.05;;;4.80;99.90;;;;;;5041997;28;20405;-84
2022/03/25 06:55:13;;;;;;;54.43;25.80;;;5.10;99.90;;;;;;5042216;28;20459;-84
2022/03/25 06:57:39;;;;;;;52.97;26.42;;;5.30;99.90;;;;;;5041583;28;20449;-84
2022/03/25 07:00:05;;;;;;;50.87;25.77;;;5.40;99.90;;;;;;5040158;28;20803;-84
2022/03/25 07:02:31;;;;;;;51.80;25.33;;;5.70;99.90;;;;;;5039482;28;20383;-84
2022/03/25 07:04:57;;;;;;;43.72;25.80;;;6.00;99.90;;;;;;5040821;28;20382;-84
2022/03/25 07:07:26;;;;;;;60.17;27.30;;;6.10;99.90;;;;;;5038313;28;20382;-84
2022/03/25 07:09:53;;;;;;;45.50;25.05;;;6.30;99.90;;;;;;5037445;28;20399;-84
2022/03/25 07:12:19;;;;;;;48.25;25.35;;;6.50;99.90;;;;;;5040362;28;20908;-84
2022/03/25 07:14:45;;;;;;;38.37;25.60;;;6.60;99.90;;;;;;5037950;28;20446;-84
2022/03/25 07:17:10;;;;;;;32.67;24.13;;;6.90;99.90;;;;;;5039931;28;20384;-84
2022/03/25 07:19:36;;;;;;;37.65;25.25;;;7.00;99.90;;;;;;5040491;28;20416;-84
2022/03/25 07:22:02;;;;;;;41.47;25.70;;;7.10;99.90;;;;;;5038626;28;20382;-84
2022/03/25 07:24:29;;;;;;;36.75;24.98;;;7.10;99.90;;;;;;5038421;28;20394;-83
2022/03/25 07:26:55;;;;;;;37.93;26.10;;;7.30;99.90;;;;;;5038434;28;20682;-84
2022/03/25 07:29:20;;;;;;;35.37;26.07;;;7.60;99.90;;;;;;5036959;28;20384;-83
2022/03/25 07:31:46;;;;;;;49.90;26.03;;;7.80;99.90;;;;;;5040174;28;20461;-84
2022/03/25 07:34:12;;;;;;;35.10;24.63;;;8.00;99.90;;;;;;5038565;28;20758;-84
2022/03/25 07:36:40;;;;;;;36.33;24.97;;;8.30;99.90;;;;;;5035994;28;20788;-84
2022/03/25 07:39:05;;;;;;;46.72;25.30;;;8.50;99.90;;;;;;5042456;28;20368;-84
2022/03/25 07:41:31;;;;;;;49.73;27.23;;;8.70;99.90;;;;;;5038453;28;20449;-84
2022/03/25 07:43:56;;;;;;;40.97;25.63;;;8.90;99.90;;;;;;5032809;28;20375;-84
2022/03/25 07:46:25;;;;;;;42.20;26.27;;;9.00;99.90;;;;;;5030714;28;21417;-83
2022/03/25 07:48:51;;;;;;;38.40;25.73;;;9.30;99.90;;;;;;5036347;28;20422;-85
2022/03/25 07:51:17;;;;;;;37.50;26.00;;;9.50;99.90;;;;;;5038713;28;20387;-84
2022/03/25 07:53:44;;;;;;;36.57;25.67;;;9.80;99.90;;;;;;5037413;28;20798;-83
2022/03/25 07:56:11;;;;;;;39.42;26.80;;;10.00;99.90;;;;;;5033957;28;20769;-83
2022/03/25 07:58:37;;;;;;;43.38;27.45;;;9.90;99.90;;;;;;5031901;28;20411;-84
2022/03/25 08:01:04;;;;;;;39.10;25.90;;;9.70;99.90;;;;;;5038652;28;20471;-85
2022/03/25 08:03:30;;;;;;;37.80;25.77;;;9.80;99.90;;;;;;5040123;28;20387;-84
2022/03/25 08:05:56;;;;;;;37.30;26.00;;;9.90;99.90;;;;;;5038440;28;20375;-84
2022/03/25 08:08:22;;;;;;;39.45;26.05;;;10.10;99.90;;;;;;5037570;28;20383;-83
2022/03/25 08:10:48;;;;;;;37.08;26.02;;;10.40;99.90;;;;;;5035593;28;20384;-84
2022/03/25 08:13:15;;;;;;;41.67;26.48;;;10.50;99.90;;;;;;5035668;28;20431;-85
2022/03/25 08:15:41;;;;;;;47.88;27.15;;;10.90;99.40;;;;;;5034842;28;20407;-82
2022/03/25 08:18:13;;;;;;;39.35;26.83;;;11.20;99.90;;;;;;5028810;28;20503;-84
2022/03/25 08:20:41;;;;;;;44.97;27.55;;;11.30;99.90;;;;;;5035638;28;20407;-84
2022/03/25 08:28:53;;;;;;;48.03;28.33;;;12.00;98.30;;;;;;5035203;28;21238;-82
2022/03/25 08:31:19;;;;;;;47.15;28.33;;;;;;;;;;5035013;28;20492;-83
2022/03/25 08:33:45;;;;;;;40.35;27.52;;;12.50;97.00;;;;;;5035039;28;20419;-82
2022/03/25 08:36:11;;;;;;;38.38;26.58;;;12.60;97.40;;;;;;5035278;28;20399;-83
2022/03/25 08:38:37;;;;;;;35.38;25.90;;;12.80;97.20;;;;;;5035304;28;20387;-83
2022/03/25 08:41:04;;;;;;;39.80;26.60;;;13.00;96.40;;;;;;5034957;28;20383;-82
2022/03/25 08:43:30;;;;;;;38.20;25.60;;;13.30;95.60;;;;;;5035146;28;20372;-82
2022/03/25 08:45:56;;;;;;;43.27;25.80;;;13.40;94.50;;;;;;5035628;28;20395;-82
2022/03/25 08:48:22;;;;;;;45.17;26.10;;;13.50;94.50;;;;;;5035374;28;20387;-83
2022/03/25 08:50:47;;;;;;;84.35;29.17;;;13.60;94.10;;;;;;5034129;28;21011;-82
2022/03/25 08:53:13;;;;;;;43.95;26.67;;;13.80;93.90;;;;;;5035336;28;20502;-82
2022/03/25 08:55:39;;;;;;;45.60;27.05;;;14.00;93.40;;;;;;5033883;28;20400;-82
2022/03/25 08:58:05;;;;;;;45.30;26.23;;;14.10;93.10;;;;;;5035164;28;20449;-83
2022/03/25 09:00:30;;;;;;;38.83;27.42;;;14.30;93.20;;;;;;5035333;28;20901;-82
2022/03/25 09:02:57;;;;;;;40.63;28.30;;;14.40;93.10;;;;;;5033114;28;20486;-82
2022/03/25 09:05:23;;;;;;;42.05;27.42;;;14.20;91.60;;;;;;5034127;28;20396;-83
2022/03/25 09:07:49;;;;;;;43.22;29.42;;;14.40;92.80;;;;;;5033732;28;20761;-82
2022/03/25 09:10:15;;;;;;;42.80;28.10;;;14.40;93.10;;;;;;5031976;28;20387;-83
2022/03/25 09:12:41;;;;;;;44.30;29.27;;;14.50;92.90;;;;;;5034841;28;20415;-83
2022/03/25 09:15:08;;;;;;;47.05;29.60;;;14.60;92.80;;;;;;5033076;28;20924;-83
2022/03/25 09:17:34;;;;;;;43.95;28.27;;;14.50;91.60;;;;;;5033304;28;20414;-83
2022/03/25 09:20:00;;;;;;;42.17;29.80;;;14.80;92.90;;;;;;5035639;28;20482;-83
2022/03/25 09:22:25;;;;;;;48.33;30.53;;;14.90;92.80;;;;;;5037547;28;20402;-82
2022/03/25 09:24:51;;;;;;;41.80;29.13;;;14.90;91.40;;;;;;5035631;28;20858;-83
2022/03/25 09:27:17;;;;;;;41.95;28.88;;;14.80;92.00;;;;;;5035354;28;20404;-83
2022/03/25 09:29:44;;;;;;;45.73;30.10;;;15.00;91.50;;;;;;5036866;28;20805;-82
2022/03/25 09:32:10;;;;;;;40.33;28.80;;;15.00;91.40;;;;;;5037218;28;20415;-83
2022/03/25 09:37:21;;;;;;;41.38;29.58;;;14.90;90.80;;;;;;5036057;28;20487;-83
2022/03/25 09:39:48;;;;;;;43.83;30.73;;;14.80;91.20;;;;;;5034673;28;20846;-82
2022/03/25 09:42:15;;;;;;;41.70;30.08;;;15.10;91.00;;;;;;5035994;28;20372;-82
2022/03/25 09:44:42;;;;;;;45.13;31.13;;;15.30;91.20;;;;;;5035458;28;20364;-84
2022/03/25 09:47:10;;;;;;;44.10;30.95;;;15.30;90.70;;;;;;5035535;28;20394;-83
2022/03/25 09:49:38;;;;;;;45.58;31.00;;;15.40;90.40;;;;;;5033843;28;20950;-81
2022/03/25 09:52:05;;;;;;;44.38;30.48;;;15.30;90.20;;;;;;5035401;28;20900;-82
2022/03/25 09:54:31;;;;;;;46.15;31.40;;;15.40;91.20;;;;;;5036361;28;20384;-83
2022/03/25 09:56:57;;;;;;;45.40;31.90;;;15.50;90.40;;;;;;5033316;28;20945;-82
2022/03/25 09:59:23;;;;;;;44.30;31.13;;;15.40;90.50;;;;;;5034286;28;20372;-81
2022/03/25 10:01:48;;;;;;;44.50;33.15;;;15.50;90.80;;;;;;5033722;28;20968;-82
2022/03/25 10:04:43;;;;;;;48.90;33.30;;;15.50;90.80;;;;;;5034306;28;21126;-83
2022/03/25 10:07:20;;;;;;;44.45;33.33;;;15.60;91.80;;;;;;5033245;28;20475;-83
2022/03/25 10:09:48;;;;;;;46.35;33.38;;;15.90;91.50;;;;;;5031898;28;20384;-83
2022/03/25 10:12:24;;;;;;;49.65;35.38;;;16.00;90.60;;;;;;5031849;28;20430;-84
2022/03/25 10:14:51;;;;;;;46.75;34.55;;;16.20;91.20;;;;;;5032074;28;20392;-83
2022/03/25 10:17:17;;;;;;;47.08;33.72;;;16.30;90.40;;;;;;5034162;28;20549;-83
2022/03/25 10:19:48;;;;;;;47.83;34.53;;;16.40;91.10;;;;;;5034632;28;20770;-82
2022/03/25 10:22:16;;;;;;;46.63;34.00;;;16.60;89.30;;;;;;5033168;28;20372;-82
2022/03/25 10:24:44;;;;;;;56.40;35.73;;;16.70;89.70;;;;;;5033881;28;21398;-82
2022/03/25 10:27:11;;;;;;;50.23;34.80;;;16.70;90.90;;;;;;5033696;28;20408;-84
2022/03/25 10:29:37;;;;;;;51.20;35.78;;;16.80;90.20;;;;;;5033555;28;20877;-84
2022/03/25 10:32:09;;;;;;;47.90;35.25;;;16.80;89.60;;;;;;5033873;28;20426;-84
2022/03/25 10:34:40;;;;;;;47.80;35.23;;;16.80;90.00;;;;;;5034469;28;20411;-83
2022/03/25 10:37:09;;;;;;;47.78;34.53;;;16.70;87.40;;;;;;5031262;28;21142;-82
2022/03/25 10:39:35;;;;;;;51.00;35.80;;;16.70;89.10;;;;;;5031825;28;20821;-83
2022/03/25 10:42:03;;;;;;;43.55;32.33;;;16.80;90.00;;;;;;5031457;28;20404;-83
2022/03/25 10:44:33;;;;;;;46.63;31.13;;;16.80;86.30;;;;;;5037334;28;20386;-83
2022/03/25 10:46:58;;;;;;;44.57;31.40;;;16.50;86.20;;;;;;5040597;28;20437;-83
2022/03/25 10:49:24;;;;;;;42.97;31.67;;;16.60;85.40;;;;;;5038491;28;20383;-82
2022/03/25 10:51:55;;;;;;;42.30;29.65;;;16.60;85.20;;;;;;5041023;28;20384;-83
2022/03/25 10:54:27;;;;;;;37.22;27.40;;;16.40;86.20;;;;;;5039727;28;20392;-82
2022/03/25 10:56:56;;;;;;;44.53;29.77;;;16.70;84.60;;;;;;5024264;28;21450;-82
2022/03/25 10:59:25;;;;;;;43.17;29.40;;;16.40;85.40;;;;;;5039158;28;20387;-85
2022/03/25 11:01:57;;;;;;;35.38;25.75;;;16.60;88.10;;;;;;5039523;28;20968;-82
2022/03/25 11:04:23;;;;;;;36.87;26.50;;;16.70;85.40;;;;;;5040290;28;20392;-82
2022/03/25 11:06:50;;;;;;;38.00;25.60;;;16.80;86.20;;;;;;5042302;28;20393;-83
2022/03/25 11:09:17;;;;;;;38.15;27.55;;;17.00;85.90;;;;;;5039618;28;20412;-83
2022/03/25 11:11:49;;;;;;;40.63;25.80;;;17.00;85.10;;;;;;5042307;28;20381;-82
2022/03/25 11:14:16;;;;;;;43.53;25.63;;;16.90;86.10;;;;;;5042126;28;20953;-83
2022/03/25 11:16:48;;;;;;;40.27;25.40;;;17.00;87.80;;;;;;5040644;28;20393;-83
2022/03/25 11:19:14;;;;;;;38.15;26.13;;;17.20;85.50;;;;;;5038581;28;20478;-82
2022/03/25 11:21:43;;;;;;;35.25;24.20;;;17.00;84.40;;;;;;5037414;28;20457;-83
2022/03/25 11:24:44;;;;;;;35.60;23.05;;;17.00;84.10;;;;;;5037478;28;20788;-83
2022/03/25 11:27:30;;;;;;;36.40;25.95;;;16.80;87.10;;;;;;5038020;28;20894;-83
2022/03/25 11:30:03;;;;;;;38.63;25.52;;;16.60;86.20;;;;;;5040451;28;20396;-82
2022/03/25 11:32:29;;;;;;;35.35;24.90;;;16.40;86.20;;;;;;5037663;28;20408;-83
2022/03/25 11:34:55;;;;;;;36.85;24.92;;;16.50;86.00;;;;;;5035084;28;20471;-83
2022/03/25 11:37:25;;;;;;;35.47;24.00;;;16.70;86.00;;;;;;5037702;28;20446;-83
2022/03/25 11:40:16;;;;;;;43.00;20.90;;;16.80;88.30;;;;;;5039095;28;20514;-83
2022/03/25 11:42:48;;;;;;;32.75;19.70;;;17.20;86.00;;;;;;5038749;28;20475;-83
2022/03/25 11:45:32;;;;;;;28.08;18.40;;;17.10;84.40;;;;;;5038869;28;20463;-82
2022/03/25 11:48:02;;;;;;;31.87;18.50;;;17.00;84.20;;;;;;5036335;28;20392;-84
2022/03/25 11:50:31;;;;;;;31.23;16.38;;;17.00;85.00;;;;;;5040312;28;20837;-83
2022/03/25 11:52:57;;;;;;;28.45;16.73;;;17.10;84.90;;;;;;5039944;28;20443;-82
2022/03/25 11:55:23;;;;;;;27.52;16.60;;;17.20;86.40;;;;;;5040075;28;20927;-84
2022/03/25 11:57:49;;;;;;;30.57;18.33;;;17.30;84.70;;;;;;5041129;28;20371;-83
2022/03/25 12:00:26;;;;;;;35.17;19.35;;;17.10;84.00;;;;;;5039608;28;20396;-84
2022/03/25 12:03:04;;;;;;;33.25;18.70;;;17.10;85.90;;;;;;5076501;28;20376;-83
2022/03/25 12:05:30;;;;;;;30.17;18.33;;;17.10;86.10;;;;;;5038161;28;20446;-82
2022/03/25 12:08:20;;;;;;;29.27;19.42;;;17.30;84.60;;;;;;5040978;28;20377;-83
2022/03/25 12:10:46;;;;;;;28.60;18.83;;;17.20;86.10;;;;;;5049829;28;20379;-82
2022/03/25 12:13:12;;;;;;;27.20;17.13;;;17.30;85.70;;;;;;5046653;28;20459;-83
2022/03/25 12:15:46;;;;;;;24.27;17.90;;;17.10;86.00;;;;;;5041924;28;20375;-84
2022/03/25 12:18:44;;;;;;;24.77;17.05;;;17.10;85.80;;;;;;5042982;28;20405;-84
2022/03/25 12:21:25;;;;;;;27.20;17.48;;;16.90;86.70;;;;;;5036364;28;20426;-83
2022/03/25 12:24:12;;;;;;;31.42;18.65;;;17.20;85.60;;;;;;5038555;28;20394;-83
2022/03/25 12:26:39;;;;;;;30.10;19.02;;;17.30;85.60;;;;;;5037486;28;20403;-83
2022/03/25 12:29:08;;;;;;;33.65;17.58;;;17.40;85.50;;;;;;5032902;28;20393;-83
2022/03/25 12:31:34;;;;;;;30.10;18.55;;;17.40;87.60;;;;;;5045607;28;21101;-84
2022/03/25 12:34:02;;;;;;;27.30;17.83;;;17.30;85.50;;;;;;5051486;28;20968;-83
2022/03/25 12:36:36;;;;;;;27.88;17.05;;;17.10;86.20;;;;;;5051801;28;20433;-83
2022/03/25 12:39:01;;;;;;;34.05;19.73;;;17.20;86.50;;;;;;5048591;28;20389;-84
2022/03/25 12:41:32;;;;;;;30.40;19.83;;;17.40;86.20;;;;;;5052418;28;20390;-82
2022/03/25 12:43:58;;;;;;;32.20;19.95;;;17.30;85.50;;;;;;5051155;28;20383;-83